Nageezi, New Mexico
Current Conditions -  °F | °C
As of 1:53 AM on Thursday 23 Oct 2014 (Local Time) from KFMN Reporting Station
Clear Clear  
Wind Chill: 42°   Ceiling: Unl
Heat Index: 45°   Visibility: 10mi
Dew Point: 33°   Wind: 6mph
Humidity: 63%   Direction: 70°ENE
Pressure: 30.22"   Gusts: NA
Location:  36.27°N, 107.74°W
Report Text: KFMN 230753Z AUTO 07005KT 10SM CLR 07/01 A3022 RMK AO2 SLP201 T00720006
Loading
Personal Weather Stations






























Interactive Weather Map
Tropical Storm Tracking
New forecast layout! Learn more

10-Day Weather Forecast

Advertisements
Track Severe Weather on mobile